createdAt,value
2023-01-28T02:17:16.827Z,100119.83
2023-01-28T02:19:54.439Z,100117.95
2023-01-28T02:22:45.237Z,100117.80
2023-01-28T02:25:28.614Z,100116.09
2023-01-28T02:28:12.358Z,100120.88
2023-01-28T02:30:43.246Z,100122.42
2023-01-28T02:33:19.670Z,100120.48
2023-01-28T02:35:50.214Z,100118.21
2023-01-28T02:38:37.604Z,100117.20
2023-01-28T02:41:11.768Z,100119.05
2023-01-28T02:43:41.405Z,100113.09
2023-01-28T02:46:44.755Z,100109.33
2023-01-28T02:49:43.357Z,100105.42
2023-01-28T02:53:01.301Z,100100.51
2023-01-28T02:55:31.759Z,100097.77
2023-01-28T02:58:09.389Z,100099.94
2023-01-28T03:01:10.430Z,100103.09
2023-01-28T03:04:09.379Z,100101.83
2023-01-28T03:06:49.157Z,100089.26
2023-01-28T03:09:23.925Z,100087.48
2023-01-28T03:12:25.695Z,100085.43
2023-01-28T03:15:17.040Z,100079.30
2023-01-28T03:18:16.487Z,100074.06
2023-01-28T03:21:12.724Z,100081.60
2023-01-28T03:24:19.123Z,100085.73
2023-01-28T03:27:13.501Z,100091.91
2023-01-28T03:30:01.180Z,100093.36
2023-01-28T03:32:48.100Z,100090.67
2023-01-28T03:35:35.741Z,100085.16
2023-01-28T03:38:18.915Z,100092.51
2023-01-28T03:40:56.317Z,100093.92
2023-01-28T03:43:24.647Z,100092.27
2023-01-28T03:45:53.906Z,100090.77
2023-01-28T03:48:24.047Z,100089.05
2023-01-28T03:50:53.465Z,100096.31
2023-01-28T03:53:21.949Z,100090.42
2023-01-28T03:55:52.777Z,100087.73
2023-01-28T03:58:21.537Z,100093.30
2023-01-28T04:00:49.899Z,100093.79
2023-01-28T04:03:19.487Z,100095.21
2023-01-28T04:06:08.934Z,100098.44
2023-01-28T04:08:53.756Z,100096.89
2023-01-28T04:11:34.379Z,100096.55
2023-01-28T04:14:05.142Z,100103.15
2023-01-28T04:16:45.212Z,100105.92
2023-01-28T04:19:14.027Z,100103.52
2023-01-28T04:21:42.960Z,100104.35
2023-01-28T04:24:15.813Z,100102.08
2023-01-28T04:26:44.390Z,100109.16
2023-01-28T04:29:12.832Z,100103.90
2023-01-28T04:31:41.343Z,100098.34
2023-01-28T04:34:37.583Z,100094.80
2023-01-28T04:37:16.063Z,100091.42
2023-01-28T04:40:03.107Z,100090.23
2023-01-28T04:42:55.320Z,100083.10
2023-01-28T04:45:36.253Z,100073.07
2023-01-28T04:48:15.847Z,100079.21
2023-01-28T04:51:07.982Z,100077.85
2023-01-28T04:53:41.823Z,100074.98
2023-01-28T04:56:25.523Z,100073.48
2023-01-28T04:58:54.078Z,100078.08
2023-01-28T05:01:22.880Z,100075.89
2023-01-28T05:03:51.622Z,100082.81
2023-01-28T05:06:26.572Z,100086.05
2023-01-28T05:08:58.217Z,100081.39
2023-01-28T05:11:26.816Z,100083.30
2023-01-28T05:14:00.130Z,100080.09
2023-01-28T05:16:35.304Z,100075.88
2023-01-28T05:19:05.146Z,100082.88
2023-01-28T05:21:42.802Z,100080.73
2023-01-28T05:24:21.672Z,100077.92
2023-01-28T05:26:50.416Z,100071.85
2023-01-28T05:29:18.922Z,100072.22
2023-01-28T05:31:48.110Z,100070.73
2023-01-28T05:34:16.709Z,100076.42
2023-01-28T05:36:45.190Z,100075.61
2023-01-28T05:39:34.575Z,100080.73
2023-01-28T05:42:02.968Z,100085.00
2023-01-28T05:44:33.483Z,100086.30
2023-01-28T05:47:14.460Z,100087.16
2023-01-28T05:49:51.304Z,100090.20
2023-01-28T05:52:38.226Z,100095.39
2023-01-28T05:55:10.342Z,100093.05
2023-01-28T05:57:39.214Z,100089.33
2023-01-28T06:00:09.760Z,100092.23
2023-01-28T06:02:43.610Z,100095.70
2023-01-28T06:05:15.052Z,100093.07
2023-01-28T06:07:49.812Z,100094.54
2023-01-28T06:10:18.308Z,100097.63
2023-01-28T06:12:47.910Z,100100.67
2023-01-28T06:15:50.257Z,100099.02
2023-01-28T10:21:23.093Z,100007.53
2023-01-28T10:23:57.402Z,99999.66
2023-01-28T10:26:30.239Z,99997.06
2023-01-28T10:29:01.002Z,99996.73
2023-01-28T10:31:33.567Z,100000.02
2023-01-28T10:34:02.204Z,99999.95
2023-01-28T10:36:30.607Z,100001.34
2023-01-28T10:38:59.118Z,99986.90
2023-01-28T10:41:27.458Z,99992.47
2023-01-28T10:43:57.057Z,99992.30
2023-01-28T10:46:30.633Z,99982.04
2023-01-28T10:49:15.799Z,99985.44
2023-01-28T10:51:44.476Z,99981.95
2023-01-28T10:54:27.999Z,99981.40
2023-01-28T10:56:59.492Z,99977.37
2023-01-28T10:59:28.729Z,99978.36
2023-01-28T11:01:58.894Z,99972.96
2023-01-28T11:04:31.545Z,99970.44
2023-01-28T11:07:04.895Z,99969.52
2023-01-28T11:09:37.841Z,99965.74
2023-01-28T11:12:22.869Z,99967.13
2023-01-28T11:15:01.935Z,99964.48
2023-01-28T11:17:32.440Z,99956.39
2023-01-28T11:20:12.980Z,99951.02
2023-01-28T11:22:43.291Z,99954.71
2023-01-28T11:25:32.757Z,99959.68
2023-01-28T11:28:02.419Z,99958.23
2023-01-28T11:30:40.473Z,99963.77
2023-01-28T11:33:19.390Z,99964.86
2023-01-28T11:35:58.417Z,99963.40
2023-01-28T11:38:27.230Z,99960.41
2023-01-28T11:40:57.192Z,99965.77
2023-01-28T11:43:26.696Z,99968.73
2023-01-28T11:46:13.555Z,99969.80
2023-01-28T11:48:43.906Z,99962.55
2023-01-28T11:51:35.162Z,99962.31
2023-01-28T11:54:25.646Z,99964.23
2023-01-28T11:57:25.034Z,99963.02
2023-01-28T12:00:19.456Z,99968.09
2023-01-28T12:02:55.089Z,99967.77
2023-01-28T12:05:46.062Z,99964.86
2023-01-28T12:08:41.553Z,99958.18
2023-01-28T12:11:47.904Z,99955.63
2023-01-28T12:14:22.087Z,99955.79
2023-01-28T12:16:59.382Z,99949.23
2023-01-28T12:19:43.454Z,99954.88
2023-01-28T12:22:18.928Z,99946.52
2023-01-28T12:25:10.211Z,99944.10
2023-01-28T12:27:56.350Z,99941.05
2023-01-28T12:30:46.741Z,99942.27
2023-01-28T12:33:18.115Z,99948.58
2023-01-28T12:36:10.805Z,99943.14
2023-01-28T12:38:59.249Z,99948.95
2023-01-28T12:41:30.880Z,99946.55
2023-01-28T12:44:13.869Z,99944.94
2023-01-28T12:47:04.265Z,99938.58
2023-01-28T12:49:34.165Z,99939.40
2023-01-28T12:52:08.639Z,99931.89
2023-01-28T12:54:57.272Z,99928.70
2023-01-28T12:57:30.681Z,99921.58
2023-01-28T13:00:44.656Z,99914.73
2023-01-28T13:03:27.208Z,99919.83
2023-01-28T13:06:22.723Z,99912.89
2023-01-28T13:08:51.346Z,99914.50
2023-01-28T13:11:20.033Z,99923.60
2023-01-28T13:13:48.703Z,99934.05
2023-01-28T13:16:19.394Z,99943.98
2023-01-28T13:18:49.873Z,99950.48
2023-01-28T13:21:24.220Z,99964.42
2023-01-28T13:24:01.943Z,99972.33
2023-01-28T13:26:38.509Z,99970.81
2023-01-28T13:29:28.353Z,99967.47
2023-01-28T13:31:59.343Z,99974.46
2023-01-28T13:34:33.984Z,99973.77
2023-01-28T13:37:16.786Z,99979.92
2023-01-28T13:40:12.579Z,99980.17
2023-01-28T13:42:41.316Z,99983.10
2023-01-28T13:45:15.903Z,99984.30
2023-01-28T13:47:49.062Z,99988.89
2023-01-28T13:50:20.877Z,99993.50
2023-01-28T13:53:03.128Z,99988.85
2023-01-28T13:55:44.899Z,99990.83
2023-01-28T13:58:29.400Z,99994.56
2023-01-28T14:01:07.091Z,100000.02
2023-01-28T14:03:54.260Z,99997.52
2023-01-28T14:06:22.664Z,99998.60
2023-01-28T14:09:12.408Z,100000.72
2023-01-28T14:12:19.784Z,100002.48
2023-01-28T14:14:53.032Z,100003.16
2023-01-28T14:17:33.608Z,100004.19
2023-01-28T14:20:02.293Z,100008.95
2023-01-28T14:22:31.128Z,100012.17
2023-01-28T14:25:00.976Z,100011.17
2023-01-28T14:27:36.374Z,100020.05
2023-01-28T14:30:14.235Z,100020.20
2023-01-28T14:32:50.647Z,100019.80
2023-01-28T14:35:31.156Z,100019.23
2023-01-28T14:37:59.583Z,100020.20
2023-01-28T14:40:29.039Z,100014.02
2023-01-28T14:42:57.522Z,100021.20
2023-01-28T14:45:39.359Z,100022.83
2023-01-28T14:48:51.303Z,100024.15
2023-01-28T14:51:34.660Z,100032.09
2023-01-28T14:54:02.996Z,100027.65
2023-01-28T14:56:38.708Z,100030.15
2023-01-28T14:59:15.930Z,100031.30
2023-01-28T15:01:46.285Z,100032.45
2023-01-28T15:04:24.636Z,100026.50
2023-01-28T15:06:53.304Z,100030.73
2023-01-28T15:09:22.808Z,100028.52
2023-01-28T15:11:52.614Z,100024.10
2023-01-28T15:14:31.425Z,100017.10
2023-01-28T15:17:00.068Z,100012.17
2023-01-28T15:19:38.335Z,100006.88
2023-01-28T15:22:08.883Z,99994.78
2023-01-28T15:24:37.510Z,99990.85
2023-01-28T15:27:05.867Z,99993.70
2023-01-28T15:29:37.121Z,99996.05
2023-01-28T15:32:30.085Z,99993.47
2023-01-28T15:35:01.688Z,99998.73
2023-01-28T15:37:30.356Z,100000.05
2023-01-28T15:40:06.359Z,100006.88
2023-01-28T15:42:34.929Z,100003.30
2023-01-28T15:45:04.649Z,100018.40
2023-01-28T15:47:34.081Z,100015.67
2023-01-28T15:50:06.783Z,100020.98
2023-01-28T15:52:39.664Z,100031.40
2023-01-28T15:55:21.645Z,100028.69
2023-01-28T15:57:50.306Z,100033.12
2023-01-28T16:00:22.173Z,100041.27
2023-01-28T16:02:52.034Z,100046.55
2023-01-28T16:05:28.979Z,100046.02
2023-01-28T16:07:58.619Z,100049.08
2023-01-28T16:10:28.540Z,100052.96
2023-01-28T16:13:14.253Z,100042.89
2023-01-28T16:15:47.045Z,100048.48
2023-01-28T16:18:24.675Z,100048.91
2023-01-28T16:20:54.022Z,100051.10
2023-01-28T16:23:23.471Z,100050.37
2023-01-28T16:26:25.077Z,100050.68
2023-01-28T16:28:53.612Z,100046.54
2023-01-28T16:31:22.147Z,100048.85
2023-01-28T16:33:52.279Z,100057.12
2023-01-28T16:36:20.891Z,100058.09
2023-01-28T16:38:49.390Z,100058.21
2023-01-28T16:41:26.181Z,100060.90
2023-01-28T16:43:54.789Z,100067.33
2023-01-28T16:46:24.035Z,100072.38
2023-01-28T16:48:55.611Z,100073.98
2023-01-28T16:51:24.161Z,100069.95
2023-01-28T16:53:52.449Z,100070.33
2023-01-28T16:56:44.066Z,100065.44
2023-01-28T16:59:15.033Z,100063.73
2023-01-28T17:01:44.284Z,100063.88
2023-01-28T17:04:13.446Z,100060.61
2023-01-28T17:06:43.314Z,100055.21
2023-01-28T17:09:13.049Z,100048.58
2023-01-28T17:11:42.227Z,100043.80
2023-01-28T17:14:11.183Z,100051.23
2023-01-28T17:16:39.877Z,100046.25
2023-01-28T17:19:08.465Z,100042.47
2023-01-28T17:21:37.099Z,100043.64
2023-01-28T17:24:05.913Z,100053.84
2023-01-28T17:26:38.341Z,100056.26
2023-01-28T17:29:07.862Z,100056.44
2023-01-28T17:31:36.843Z,100049.30
2023-01-28T17:34:07.256Z,100045.91
2023-01-28T17:36:38.319Z,100047.42
2023-01-28T17:39:07.681Z,100043.69
2023-01-28T17:41:36.833Z,100043.64
2023-01-28T17:44:05.362Z,100045.14
2023-01-28T17:46:34.828Z,100042.77
2023-01-28T17:49:03.574Z,100044.24
2023-01-28T17:51:31.997Z,100049.80
2023-01-28T17:54:02.070Z,100039.09
2023-01-28T17:56:31.318Z,100037.56
2023-01-28T17:59:04.645Z,100032.45
2023-01-28T18:01:34.260Z,100036.36
2023-01-28T18:04:04.203Z,100030.59
2023-01-28T18:06:35.786Z,100030.57
2023-01-28T22:15:04.406Z,99924.85
2023-01-28T22:17:33.531Z,99925.20
2023-01-28T22:20:01.909Z,99923.84
2023-01-28T22:22:30.610Z,99928.43
2023-01-28T22:25:00.076Z,99927.43
2023-01-28T22:27:28.957Z,99925.58
2023-01-28T22:29:57.627Z,99928.70
2023-01-28T22:32:26.836Z,99924.67
2023-01-28T22:34:55.196Z,99921.96
2023-01-28T22:37:24.007Z,99915.70
2023-01-28T22:39:54.465Z,99910.61
2023-01-28T22:42:26.377Z,99908.42
2023-01-28T22:44:54.811Z,99914.86
2023-01-28T22:47:23.085Z,99914.15
2023-01-28T22:49:51.480Z,99915.98
2023-01-28T22:52:19.820Z,99915.29
2023-01-28T22:54:48.637Z,99912.53
2023-01-28T22:57:16.934Z,99912.48
2023-01-28T22:59:59.298Z,99912.80
2023-01-28T23:02:28.848Z,99916.02
2023-01-28T23:04:57.202Z,99914.61
2023-01-28T23:07:25.966Z,99915.93
2023-01-28T23:09:54.634Z,99914.89
2023-01-28T23:12:23.381Z,99912.34
2023-01-28T23:15:10.886Z,99909.63
2023-01-28T23:18:12.783Z,99903.66
2023-01-28T23:21:00.685Z,99899.06
2023-01-28T23:23:47.705Z,99902.81
2023-01-28T23:26:16.141Z,99902.45
2023-01-28T23:28:44.405Z,99909.79
2023-01-28T23:31:12.914Z,99903.66
2023-01-28T23:33:41.624Z,99907.89
2023-01-28T23:36:09.983Z,99910.07
2023-01-28T23:38:38.351Z,99917.02
2023-01-28T23:41:07.005Z,99923.81
2023-01-28T23:43:35.301Z,99922.96
2023-01-28T23:46:03.809Z,99920.42
2023-01-28T23:48:32.178Z,99924.99
2023-01-28T23:51:00.677Z,99928.52
2023-01-28T23:53:29.922Z,99932.23
2023-01-28T23:55:58.498Z,99928.46
2023-01-28T23:58:42.686Z,99928.11
